Time;durP1;ratioP1;P1;durP2;ratioP2;P2;SDS_P1;SDS_P2;PMS_P1;PMS_P2;Temp;Humidity;BMP_temperature;BMP_pressure;BME280_temperature;BME280_humidity;BME280_pressure;Samples;Min_cycle;Max_cycle;Signal;HPM_P1;HPM_P2
2023/03/25 00:01:37;;;;;;;;;;;;;;;9.77;76.67;99886.03;4122328;28;20009;-63
2023/03/25 00:03:41;;;;;;;;;;;;;;;9.78;77.02;99886.84;4124257;28;20444;-64
2023/03/25 00:05:43;;;;;;;;;;;;;;;9.78;76.75;99881.44;4121519;28;20037;-64
2023/03/25 00:07:45;;;;;;;;;;;;;;;9.80;76.61;99882.13;4121125;28;20017;-63
2023/03/25 00:09:48;;;;;;;;;;;;;;;9.78;76.59;99884.16;4121913;28;20024;-63
2023/03/25 00:11:50;;;;;;;;;;;;;;;9.79;76.61;99888.53;4120719;28;19930;-64
2023/03/25 00:13:52;;;;;;;;;;;;;;;9.75;76.70;99888.09;4121237;28;20017;-64
2023/03/25 00:15:57;;;;;;;;;;;;;;;9.72;76.89;99888.47;4121100;28;20480;-63
2023/03/25 00:17:58;;;;;;;;;;;;;;;9.69;76.99;99873.50;4121539;28;20016;-64
2023/03/25 00:20:04;;;;;;;;;;;;;;;9.69;77.30;99872.66;4121658;28;20016;-64
2023/03/25 00:22:07;;;;;;;;;;;;;;;9.69;77.06;99868.09;4120010;28;20017;-63
2023/03/25 00:24:11;;;;;;;;;;;;;;;9.70;77.04;99867.09;4121417;28;20028;-64
2023/03/25 00:26:16;;;;;;;;;;;;;;;9.68;76.80;99865.59;4121631;28;20024;-64
2023/03/25 00:28:18;;;;;;;;;;;;;;;9.64;77.05;99867.84;4119873;28;20440;-64
2023/03/25 00:30:20;;;;;;;;;;;;;;;9.64;76.89;99869.69;4121484;28;20053;-64
2023/03/25 00:32:23;;;;;;;;;;;;;;;9.62;76.93;99864.50;4155157;28;19932;-64
2023/03/25 00:34:25;;;;;;;;;;;;;;;9.63;77.03;99866.19;4124851;28;20033;-64
2023/03/25 00:36:28;;;;;;;;;;;;;;;9.64;76.91;99869.69;4123881;28;20025;-63
2023/03/25 00:38:34;;;;;;;;;;;;;;;9.61;76.79;99870.06;4130606;28;20451;-64
2023/03/25 00:40:36;;;;;;;;;;;;;;;9.59;76.91;99874.84;4124591;28;20021;-64
2023/03/25 00:42:48;;;;;;;;;;;;;;;9.57;77.13;99869.63;4138749;28;20021;-64
2023/03/25 00:44:50;;;;;;;;;;;;;;;9.55;76.96;99877.91;4156019;28;20655;-64
2023/03/25 00:46:52;;;;;;;;;;;;;;;9.56;77.37;99884.13;4123475;28;20015;-61
2023/03/25 00:48:54;;;;;;;;;;;;;;;9.58;77.17;99882.09;4148005;28;20017;-65
2023/03/25 00:50:57;;;;;;;;;;;;;;;9.60;76.74;99874.66;4124743;28;20019;-63
2023/03/25 00:53:02;;;;;;;;;;;;;;;9.58;76.86;99884.78;4146042;28;20396;-63
2023/03/25 00:55:04;;;;;;;;;;;;;;;9.58;76.87;99882.09;4124417;28;20523;-65
2023/03/25 00:57:06;;;;;;;;;;;;;;;9.59;76.74;99883.75;4122999;28;20032;-65
2023/03/25 00:59:08;;;;;;;;;;;;;;;9.60;77.05;99885.44;4122887;28;20021;-65
2023/03/25 01:01:11;;;;;;;;;;;;;;;9.60;76.75;99893.53;4130342;28;20054;-65
2023/03/25 01:03:14;;;;;;;;;;;;;;;9.60;76.88;99882.72;4122640;28;20483;-65
2023/03/25 01:05:16;;;;;;;;;;;;;;;9.59;76.52;99881.06;4156087;28;20008;-64
2023/03/25 01:07:19;;;;;;;;;;;;;;;9.56;76.91;99878.75;4123575;28;20024;-64
2023/03/25 01:09:22;;;;;;;;;;;;;;;9.53;76.83;99881.84;4124259;28;20443;-64
2023/03/25 01:11:25;;;;;;;;;;;;;;;9.55;77.29;99877.09;4123453;28;20501;-64
2023/03/25 01:13:27;;;;;;;;;;;;;;;9.59;76.95;99888.31;4123873;28;19988;-65
2023/03/25 01:15:29;;;;;;;;;;;;;;;9.58;77.08;99884.78;4123445;28;20013;-64
2023/03/25 01:17:31;;;;;;;;;;;;;;;9.57;77.19;99880.41;4123947;28;20025;-65
2023/03/25 01:19:33;;;;;;;;;;;;;;;9.59;76.79;99882.91;4124126;28;20429;-64
2023/03/25 01:21:35;;;;;;;;;;;;;;;9.59;76.73;99878.34;4122277;28;20896;-64
2023/03/25 01:23:38;;;;;;;;;;;;;;;9.59;76.90;99874.84;4123694;28;20029;-64
2023/03/25 01:25:41;;;;;;;;;;;;;;;9.50;76.95;99866.06;4124056;28;20029;-64
2023/03/25 01:27:43;;;;;;;;;;;;;;;9.54;76.79;99876.25;4121459;28;20008;-64
2023/03/25 01:29:45;;;;;;;;;;;;;;;9.48;76.93;99862.69;4138977;28;20016;-64
2023/03/25 01:31:47;;;;;;;;;;;;;;;9.49;77.32;99859.81;4153642;28;20016;-64
2023/03/25 01:33:49;;;;;;;;;;;;;;;9.52;77.25;99853.22;4123974;28;19949;-64
2023/03/25 01:35:51;;;;;;;;;;;;;;;9.54;77.16;99849.31;4122135;28;20017;-64
2023/03/25 01:37:54;;;;;;;;;;;;;;;9.55;76.75;99847.44;4123290;28;20012;-65
2023/03/25 01:39:56;;;;;;;;;;;;;;;9.55;76.57;99850.13;4123568;28;20017;-63
2023/03/25 01:41:59;;;;;;;;;;;;;;;9.51;76.56;99844.31;4121813;28;20006;-64
2023/03/25 01:44:05;;;;;;;;;;;;;;;9.51;76.72;99844.31;4122923;28;20032;-64
2023/03/25 01:46:12;;;;;;;;;;;;;;;9.49;76.88;99840.94;4123430;28;20121;-64
2023/03/25 01:48:16;;;;;;;;;;;;;;;9.48;76.82;99838.44;4123020;28;20032;-64
2023/03/25 01:50:20;;;;;;;;;;;;;;;9.46;76.87;99838.63;4123153;28;20016;-65
2023/03/25 01:52:23;;;;;;;;;;;;;;;9.46;76.84;99835.94;4122299;28;20024;-64
2023/03/25 01:54:26;;;;;;;;;;;;;;;9.45;76.93;99839.69;4153823;28;20459;-64
2023/03/25 01:56:30;;;;;;;;;;;;;;;9.44;76.80;99839.88;4122386;28;20037;-64
2023/03/25 01:58:34;;;;;;;;;;;;;;;9.38;76.95;99847.66;4129397;28;20033;-64
2023/03/25 02:00:36;;;;;;;;;;;;;;;9.34;77.10;99849.09;4123634;28;20084;-64
2023/03/25 02:02:39;;;;;;;;;;;;;;;9.33;77.50;99841.19;4122483;28;19993;-64
2023/03/25 02:04:44;;;;;;;;;;;;;;;9.32;77.62;99843.03;4123189;28;20368;-64
2023/03/25 02:06:46;;;;;;;;;;;;;;;9.31;77.49;99840.53;4122465;28;20327;-64
2023/03/25 02:08:48;;;;;;;;;;;;;;;9.30;77.67;99836.19;4122985;28;20080;-65
2023/03/25 02:10:51;;;;;;;;;;;;;;;9.30;77.96;99831.63;4122082;28;20470;-64
2023/03/25 02:12:53;;;;;;;;;;;;;;;9.29;77.98;99832.66;4128263;28;20029;-64
2023/03/25 02:14:56;;;;;;;;;;;;;;;9.27;78.04;99831.19;4123128;28;19976;-64
2023/03/25 02:16:59;;;;;;;;;;;;;;;9.27;78.29;99826.63;4144858;28;20016;-64
2023/03/25 02:19:06;;;;;;;;;;;;;;;9.24;78.42;99824.31;4123580;28;20016;-65
2023/03/25 02:21:25;;;;;;;;;;;;;;;9.24;78.57;99827.00;4123039;28;20008;-64
2023/03/25 02:23:46;;;;;;;;;;;;;;;9.27;78.65;99815.03;4137092;28;20028;-64
2023/03/25 02:25:53;;;;;;;;;;;;;;;9.28;78.36;99809.44;4128666;28;19980;-64
2023/03/25 02:27:57;;;;;;;;;;;;;;;9.30;78.67;99796.59;4122855;28;20016;-64
2023/03/25 02:30:29;;;;;;;;;;;;;;;9.32;78.50;99797.22;4128488;28;20064;-63
2023/03/25 02:32:37;;;;;;;;;;;;;;;9.36;78.62;99803.91;4072313;29;20013;-64
2023/03/25 02:34:42;;;;;;;;;;;;;;;9.36;78.33;99801.22;4114878;28;20569;-65
2023/03/25 02:36:57;;;;;;;;;;;;;;;9.37;78.48;99792.13;4136410;28;19926;-63
2023/03/25 02:39:01;;;;;;;;;;;;;;;9.35;78.31;99788.75;4144363;28;20483;-63
2023/03/25 02:41:04;;;;;;;;;;;;;;;9.34;78.68;99787.13;4129095;28;20033;-63
2023/03/25 02:43:10;;;;;;;;;;;;;;;9.33;78.72;99785.44;4143730;28;20016;-64
2023/03/25 02:45:16;;;;;;;;;;;;;;;9.33;78.92;99785.44;4128450;28;20028;-64
2023/03/25 02:47:19;;;;;;;;;;;;;;;9.33;78.55;99787.31;4125140;28;19957;-64
2023/03/25 02:49:23;;;;;;;;;;;;;;;9.34;78.67;99786.25;4120477;28;20020;-64
2023/03/25 02:51:26;;;;;;;;;;;;;;;9.34;79.04;99778.19;4138049;28;20025;-63
2023/03/25 02:53:29;;;;;;;;;;;;;;;9.35;78.75;99775.28;4144322;28;20008;-63
2023/03/25 02:55:33;;;;;;;;;;;;;;;9.39;78.75;99775.75;4122179;28;20025;-63
2023/03/25 02:57:35;;;;;;;;;;;;;;;9.41;78.61;99775.56;4121711;28;19926;-63
2023/03/25 02:59:39;;;;;;;;;;;;;;;9.41;78.80;99772.88;4122531;28;20025;-64
2023/03/25 03:01:41;;;;;;;;;;;;;;;9.42;78.57;99771.81;4120892;28;20423;-63
2023/03/25 03:03:43;;;;;;;;;;;;;;;9.43;78.35;99774.31;4121966;28;19941;-64
2023/03/25 03:05:46;;;;;;;;;;;;;;;9.42;78.62;99775.38;4121722;28;20372;-63
2023/03/25 03:07:49;;;;;;;;;;;;;;;9.41;78.43;99767.47;4143685;28;20008;-64
2023/03/25 03:09:57;;;;;;;;;;;;;;;9.45;78.83;99766.03;4144821;28;20016;-63
2023/03/25 03:12:05;;;;;;;;;;;;;;;9.46;78.55;99762.34;4121215;28;19934;-64
2023/03/25 03:14:12;;;;;;;;;;;;;;;9.47;78.61;99762.16;4122863;28;20020;-64
2023/03/25 03:16:18;;;;;;;;;;;;;;;9.46;78.27;99759.63;4152762;28;19929;-64
2023/03/25 03:18:26;;;;;;;;;;;;;;;9.48;78.50;99766.53;4136993;28;19926;-64
2023/03/25 03:20:31;;;;;;;;;;;;;;;9.47;78.47;99766.72;4137377;28;20016;-64
2023/03/25 03:22:35;;;;;;;;;;;;;;;9.47;78.49;99769.41;4126944;28;20032;-63
2023/03/25 03:24:37;;;;;;;;;;;;;;;9.49;78.43;99770.03;4143647;28;20012;-64
2023/03/25 03:26:40;;;;;;;;;;;;;;;9.54;78.62;99770.28;4121888;28;20028;-64
2023/03/25 03:28:47;;;;;;;;;;;;;;;9.53;78.26;99772.16;4122213;28;20482;-64
2023/03/25 03:30:50;;;;;;;;;;;;;;;9.55;78.66;99775.47;4121891;28;20554;-63
2023/03/25 03:32:53;;;;;;;;;;;;;;;9.58;78.43;99785.06;4121121;28;20017;-63
2023/03/25 03:34:56;;;;;;;;;;;;;;;9.62;78.43;99774.69;4121427;28;20440;-64
2023/03/25 03:36:58;;;;;;;;;;;;;;;9.63;78.91;99781.78;4121564;28;20005;-63
2023/03/25 03:39:00;;;;;;;;;;;;;;;9.64;78.84;99796.91;4120191;28;19933;-63
2023/03/25 03:41:04;;;;;;;;;;;;;;;9.64;78.90;99786.97;4121276;28;20016;-64
2023/03/25 03:43:07;;;;;;;;;;;;;;;9.70;78.91;99788.03;4136021;28;19925;-64
2023/03/25 03:45:12;;;;;;;;;;;;;;;9.72;78.88;99770.66;4151397;28;20020;-64
2023/03/25 03:47:15;;;;;;;;;;;;;;;9.74;79.03;99779.38;4137304;28;20018;-64
2023/03/25 03:49:18;;;;;;;;;;;;;;;9.76;79.08;99776.47;4137957;28;20025;-65
2023/03/25 03:51:20;;;;;;;;;;;;;;;9.79;78.88;99791.44;4137332;28;20024;-65
2023/03/25 03:53:23;;;;;;;;;;;;;;;9.78;79.39;99795.16;4137462;28;20427;-64
2023/03/25 03:55:28;;;;;;;;;;;;;;;9.80;79.10;99779.63;4137638;28;20013;-64
2023/03/25 03:57:30;;;;;;;;;;;;;;;9.81;79.47;99774.03;4137562;28;20431;-64
2023/03/25 03:59:35;;;;;;;;;;;;;;;9.80;79.61;99782.34;4138213;28;20467;-63
2023/03/25 04:01:44;;;;;;;;;;;;;;;9.78;79.97;99782.53;4137339;28;20008;-64
2023/03/25 04:03:47;;;;;;;;;;;;;;;9.76;80.04;99763.00;4143942;28;20027;-62
2023/03/25 04:05:50;;;;;;;;;;;;;;;9.76;80.10;99771.09;4138653;28;20024;-64
2023/03/25 04:07:53;;;;;;;;;;;;;;;9.73;80.11;99777.72;4140789;28;20028;-62
2023/03/25 04:09:57;;;;;;;;;;;;;;;9.70;80.48;99783.50;4140718;28;20028;-63
2023/03/25 04:11:59;;;;;;;;;;;;;;;9.69;81.14;99783.69;4140525;28;20004;-63
2023/03/25 04:14:01;;;;;;;;;;;;;;;9.68;81.09;99785.53;4141662;28;20020;-64
2023/03/25 04:16:03;;;;;;;;;;;;;;;9.67;81.42;99781.19;4140428;28;20020;-64
2023/03/25 04:18:07;;;;;;;;;;;;;;;9.67;81.14;99791.13;4139323;28;20604;-64
2023/03/25 04:20:10;;;;;;;;;;;;;;;9.66;81.32;99786.78;4140820;28;19925;-64
2023/03/25 04:22:15;;;;;;;;;;;;;;;9.66;81.67;99786.78;4140062;28;20033;-64
2023/03/25 04:24:18;;;;;;;;;;;;;;;9.63;81.57;99784.47;4140935;28;20012;-63
2023/03/25 04:26:20;;;;;;;;;;;;;;;9.61;81.42;99789.19;4140562;28;20012;-64
2023/03/25 04:28:22;;;;;;;;;;;;;;;9.58;81.59;99790.44;4140686;28;20293;-64
2023/03/25 04:30:25;;;;;;;;;;;;;;;9.56;81.84;99782.56;4140819;28;20448;-64
2023/03/25 04:32:27;;;;;;;;;;;;;;;9.56;81.92;99789.78;4138656;28;19954;-65
2023/03/25 04:34:30;;;;;;;;;;;;;;;9.54;82.12;99784.63;4141568;28;20048;-63
2023/03/25 04:36:36;;;;;;;;;;;;;;;9.55;82.01;99786.25;4140441;28;20024;-64
2023/03/25 04:38:39;;;;;;;;;;;;;;;9.57;82.01;99786.88;4146115;28;20047;-65
2023/03/25 04:40:45;;;;;;;;;;;;;;;9.57;82.23;99784.19;4140692;28;20438;-64
2023/03/25 04:42:47;;;;;;;;;;;;;;;9.57;82.31;99786.88;4140281;28;20041;-65
2023/03/25 04:44:49;;;;;;;;;;;;;;;9.57;82.13;99789.59;4140331;28;20025;-63
2023/03/25 04:46:51;;;;;;;;;;;;;;;9.53;81.91;99782.94;4139956;28;20036;-64
2023/03/25 04:48:55;;;;;;;;;;;;;;;9.51;81.84;99792.22;4140164;28;20056;-64
2023/03/25 04:51:00;;;;;;;;;;;;;;;9.51;82.24;99785.00;4140301;28;20547;-64
2023/03/25 04:53:02;;;;;;;;;;;;;;;9.52;81.90;99788.53;4139687;28;20033;-64
2023/03/25 04:55:05;;;;;;;;;;;;;;;9.50;82.07;99782.50;4140777;28;20045;-64
2023/03/25 04:57:08;;;;;;;;;;;;;;;9.50;81.96;99782.50;4128523;28;20420;-64
2023/03/25 04:59:10;;;;;;;;;;;;;;;9.49;81.81;99776.25;4140684;28;20443;-64
2023/03/25 05:01:16;;;;;;;;;;;;;;;9.48;81.84;99779.13;4140722;28;20029;-64
2023/03/25 05:03:22;;;;;;;;;;;;;;;9.48;81.59;99784.53;4139082;28;20378;-63
2023/03/25 05:05:25;;;;;;;;;;;;;;;9.46;81.88;99784.72;4139906;28;20035;-64
2023/03/25 05:07:29;;;;;;;;;;;;;;;9.47;81.44;99782.88;4144793;28;20020;-65
2023/03/25 05:09:31;;;;;;;;;;;;;;;9.46;81.50;99789.28;4140638;28;20029;-65
2023/03/25 05:11:34;;;;;;;;;;;;;;;9.44;81.50;99788.66;4139838;28;20027;-64
2023/03/25 05:13:36;;;;;;;;;;;;;;;9.43;81.37;99770.81;4139983;28;20016;-63
2023/03/25 05:15:39;;;;;;;;;;;;;;;9.41;81.19;99773.69;4139664;28;20048;-65
2023/03/25 05:17:42;;;;;;;;;;;;;;;9.40;81.26;99781.97;4139162;28;20016;-64
2023/03/25 05:19:44;;;;;;;;;;;;;;;9.38;81.12;99788.38;4145504;28;20025;-63
2023/03/25 05:21:47;;;;;;;;;;;;;;;9.40;80.76;99779.28;4141752;28;19926;-64
2023/03/25 05:23:51;;;;;;;;;;;;;;;9.40;80.58;99774.72;4122625;28;20525;-64
2023/03/25 05:25:55;;;;;;;;;;;;;;;9.40;80.33;99774.72;4124027;28;20010;-64
2023/03/25 05:27:57;;;;;;;;;;;;;;;9.42;80.25;99782.59;4123614;28;20017;-63
2023/03/25 05:29:59;;;;;;;;;;;;;;;9.38;79.52;99774.91;4123948;28;20467;-63
2023/03/25 05:32:01;;;;;;;;;;;;;;;9.37;79.19;99778.66;4123141;28;20029;-64
2023/03/25 05:34:05;;;;;;;;;;;;;;;9.38;79.25;99782.16;4124104;28;20009;-64
2023/03/25 05:36:08;;;;;;;;;;;;;;;9.34;79.14;99775.47;4123583;28;20028;-64
2023/03/25 05:38:12;;;;;;;;;;;;;;;9.33;78.95;99771.97;4123828;28;20018;-64
2023/03/25 05:40:15;;;;;;;;;;;;;;;9.33;78.78;99773.84;4123578;28;20021;-65
2023/03/25 05:42:21;;;;;;;;;;;;;;;9.33;78.61;99780.06;4122670;28;19940;-65
2023/03/25 05:44:25;;;;;;;;;;;;;;;9.34;78.54;99779.03;4122833;28;20025;-64
2023/03/25 05:46:28;;;;;;;;;;;;;;;9.35;78.45;99782.56;4121726;28;19933;-65
2023/03/25 05:48:31;;;;;;;;;;;;;;;9.34;78.26;99779.03;4122009;28;20009;-65
2023/03/25 05:50:33;;;;;;;;;;;;;;;9.35;78.13;99790.63;4121708;28;20468;-64
2023/03/25 05:52:36;;;;;;;;;;;;;;;9.37;78.23;99781.34;4121047;28;20507;-64
2023/03/25 05:54:41;;;;;;;;;;;;;;;9.41;77.92;99789.03;4121727;28;19926;-64
2023/03/25 05:56:45;;;;;;;;;;;;;;;9.42;77.81;99796.94;4121326;28;20012;-65
2023/03/25 05:58:47;;;;;;;;;;;;;;;9.44;77.44;99794.88;4121301;28;20021;-65
2023/03/25 06:00:50;;;;;;;;;;;;;;;9.47;77.65;99812.53;4122990;28;20017;-63
2023/03/25 06:02:53;;;;;;;;;;;;;;;9.50;76.97;99801.38;4120768;28;20483;-64
2023/03/25 06:04:55;;;;;;;;;;;;;;;9.51;77.39;99806.56;4122905;28;20025;-65
2023/03/25 06:06:57;;;;;;;;;;;;;;;9.50;76.90;99804.88;4122760;28;20026;-65
2023/03/25 06:08:59;;;;;;;;;;;;;;;9.50;77.13;99810.28;4122488;28;20477;-65
2023/03/25 06:11:02;;;;;;;;;;;;;;;9.54;77.27;99811.56;4122853;28;20020;-64
2023/03/25 06:13:06;;;;;;;;;;;;;;;9.55;76.61;99820.47;4121334;28;20025;-63
2023/03/25 06:15:09;;;;;;;;;;;;;;;9.56;76.51;99816.75;4122331;28;20457;-65
2023/03/25 06:17:11;;;;;;;;;;;;;;;9.51;76.63;99820.03;4122675;28;20025;-65
2023/03/25 06:19:17;;;;;;;;;;;;;;;9.49;76.56;99814.00;4123010;28;20032;-65
2023/03/25 06:21:20;;;;;;;;;;;;;;;9.53;76.73;99812.59;4122162;28;19980;-65
2023/03/25 06:23:22;;;;;;;;;;;;;;;9.58;76.54;99814.72;4122228;28;19984;-66
2023/03/25 06:25:25;;;;;;;;;;;;;;;9.60;76.36;99834.22;4122321;28;20025;-64
2023/03/25 06:27:27;;;;;;;;;;;;;;;9.62;75.74;99826.75;4121644;28;20053;-66
2023/03/25 06:29:30;;;;;;;;;;;;;;;9.61;75.53;99825.09;4122438;28;20017;-66
2023/03/25 06:31:32;;;;;;;;;;;;;;;9.61;75.39;99830.50;4122122;28;20041;-64
2023/03/25 06:33:35;;;;;;;;;;;;;;;9.59;75.45;99827.13;4121503;28;20025;-64
2023/03/25 06:35:37;;;;;;;;;;;;;;;9.62;75.58;99834.84;4122522;28;20025;-65
2023/03/25 06:37:39;;;;;;;;;;;;;;;9.64;75.94;99826.56;4121674;28;20358;-64
2023/03/25 06:39:48;;;;;;;;;;;;;;;9.64;75.73;99823.84;4121667;28;20028;-67
2023/03/25 06:41:54;;;;;;;;;;;;;;;9.65;76.02;99825.53;4127440;28;20020;-65
2023/03/25 06:44:02;;;;;;;;;;;;;;;9.64;76.18;99821.16;4136731;28;20012;-66
2023/03/25 06:46:23;;;;;;;;;;;;;;;9.68;76.26;99836.75;4122072;28;20028;-66
2023/03/25 06:48:47;;;;;;;;;;;;;;;9.70;76.56;99831.19;4136670;28;20029;-65
2023/03/25 06:50:49;;;;;;;;;;;;;;;9.71;76.80;99824.78;4122166;28;20040;-64
2023/03/25 06:52:51;;;;;;;;;;;;;;;9.73;76.65;99826.25;4121484;28;20021;-63
2023/03/25 06:54:53;;;;;;;;;;;;;;;9.74;76.70;99829.78;4121794;28;20491;-63
2023/03/25 06:56:55;;;;;;;;;;;;;;;9.76;76.63;99826.88;4121058;28;20044;-62
2023/03/25 06:58:57;;;;;;;;;;;;;;;9.76;76.40;99816.09;4121825;28;20065;-64
2023/03/25 07:01:02;;;;;;;;;;;;;;;9.74;76.67;99819.81;4122074;28;20563;-64
2023/03/25 07:03:06;;;;;;;;;;;;;;;9.74;76.51;99810.91;4120954;28;20332;-64
2023/03/25 07:05:08;;;;;;;;;;;;;;;9.75;76.63;99815.28;4121452;28;19926;-63
2023/03/25 07:07:10;;;;;;;;;;;;;;;9.74;76.74;99819.81;4121679;28;20455;-64
2023/03/25 07:09:13;;;;;;;;;;;;;;;9.75;76.32;99817.97;4123013;28;20016;-63
2023/03/25 07:11:15;;;;;;;;;;;;;;;9.77;77.51;99828.56;4105404;28;19927;-64
2023/03/25 07:13:17;;;;;;;;;;;;;;;9.81;77.41;99825.28;4120546;28;19934;-63
2023/03/25 07:15:19;;;;;;;;;;;;;;;9.88;78.28;99830.72;4119738;28;20036;-65
2023/03/25 07:17:22;;;;;;;;;;;;;;;9.92;78.17;99838.25;4134717;28;20055;-65
2023/03/25 07:19:25;;;;;;;;;;;;;;;9.96;78.62;99833.28;4126972;28;20475;-63
2023/03/25 07:21:27;;;;;;;;;;;;;;;10.01;78.77;99820.03;4135510;28;20036;-64
2023/03/25 07:23:30;;;;;;;;;;;;;;;10.04;78.43;99837.69;4119313;28;19926;-62
2023/03/25 07:25:32;;;;;;;;;;;;;;;10.04;77.80;99832.31;4135592;28;20446;-62
2023/03/25 07:27:34;;;;;;;;;;;;;;;10.05;77.93;99837.50;4120297;28;20024;-62
2023/03/25 07:29:42;;;;;;;;;;;;;;;10.07;77.72;99835.44;4119830;28;20016;-63
2023/03/25 07:31:45;;;;;;;;;;;;;;;10.07;77.33;99827.34;4120529;28;20373;-63
2023/03/25 07:33:47;;;;;;;;;;;;;;;10.08;77.44;99830.88;4137848;28;20032;-65
2023/03/25 07:35:50;;;;;;;;;;;;;;;10.12;76.75;99834.84;4123139;28;20052;-64
2023/03/25 07:37:52;;;;;;;;;;;;;;;10.10;76.75;99835.03;4121231;28;20033;-63
2023/03/25 07:39:54;;;;;;;;;;;;;;;10.12;76.38;99848.34;4121584;28;20029;-65
2023/03/25 07:41:56;;;;;;;;;;;;;;;10.11;75.67;99849.38;4117687;28;20033;-63
2023/03/25 07:44:19;;;;;;;;;;;;;;;10.14;75.87;99842.75;4119517;28;20025;-63
2023/03/25 07:46:23;;;;;;;;;;;;;;;10.16;75.38;99833.44;4120221;28;19953;-63
2023/03/25 07:48:26;;;;;;;;;;;;;;;10.18;74.95;99838.63;4121697;28;19961;-64
2023/03/25 07:50:29;;;;;;;;;;;;;;;10.18;74.77;99834.06;4120812;28;20020;-64
2023/03/25 07:52:32;;;;;;;;;;;;;;;10.22;74.97;99834.50;4120953;28;20028;-63
2023/03/25 07:54:34;;;;;;;;;;;;;;;10.25;74.81;99834.97;4122580;28;20020;-65
2023/03/25 07:56:36;;;;;;;;;;;;;;;10.31;73.98;99848.69;4120797;28;20025;-65
2023/03/25 07:58:38;;;;;;;;;;;;;;;10.35;73.20;99841.91;4120345;28;20037;-64
2023/03/25 08:00:40;;;;;;;;;;;;;;;10.39;73.24;99835.06;4120541;28;20024;-65
2023/03/25 08:02:42;;;;;;;;;;;;;;;10.44;72.84;99852.34;4120314;28;20150;-64
2023/03/25 08:04:45;;;;;;;;;;;;;;;10.47;72.03;99834.91;4125542;28;19968;-64
2023/03/25 08:06:47;;;;;;;;;;;;;;;10.48;71.97;99827.66;4120058;28;20572;-65
2023/03/25 08:08:50;;;;;;;;;;;;;;;10.49;72.16;99857.16;4120554;28;20021;-65
2023/03/25 08:10:52;;;;;;;;;;;;;;;10.49;71.48;99830.16;4120675;28;20028;-64
2023/03/25 08:12:54;;;;;;;;;;;;;;;10.51;71.78;99841.56;4120727;28;20029;-65
2023/03/25 08:14:56;;;;;;;;;;;;;;;10.54;71.50;99843.06;4120959;28;20020;-63
2023/03/25 08:16:58;;;;;;;;;;;;;;;10.56;71.28;99831.00;4120868;28;20024;-65
2023/03/25 08:19:00;;;;;;;;;;;;;;;10.58;70.72;99828.09;4120429;28;20024;-64
2023/03/25 08:21:03;;;;;;;;;;;;;;;10.59;69.82;99837.88;4121099;28;20030;-65
2023/03/25 08:23:09;;;;;;;;;;;;;;;10.55;69.67;99823.97;4120671;28;20062;-65
2023/03/25 08:25:13;;;;;;;;;;;;;;;10.64;69.77;99838.97;4120617;28;20021;-65
2023/03/25 08:27:15;;;;;;;;;;;;;;;10.66;69.76;99837.91;4120142;28;20420;-65
2023/03/25 08:29:19;;;;;;;;;;;;;;;10.68;69.73;99825.06;4120850;28;20021;-64
2023/03/25 08:31:21;;;;;;;;;;;;;;;10.72;69.98;99837.97;4101696;28;20033;-64
2023/03/25 08:33:26;;;;;;;;;;;;;;;10.72;68.98;99829.00;4120881;28;20045;-64
2023/03/25 08:35:28;;;;;;;;;;;;;;;10.72;68.39;99823.59;4121071;28;20024;-64
2023/03/25 08:37:33;;;;;;;;;;;;;;;10.74;68.61;99843.16;4120133;28;20032;-63
2023/03/25 08:39:38;;;;;;;;;;;;;;;10.78;68.54;99839.88;4142173;28;20021;-64
2023/03/25 08:41:41;;;;;;;;;;;;;;;10.82;69.11;99837.59;4124516;28;20024;-63
2023/03/25 08:43:44;;;;;;;;;;;;;;;10.87;68.26;99837.00;4120580;28;20008;-64
2023/03/25 08:45:46;;;;;;;;;;;;;;;10.87;67.74;99829.72;4121415;28;20042;-64
2023/03/25 08:47:47;;;;;;;;;;;;;;;10.92;67.29;99834.50;4126077;28;20024;-63
2023/03/25 08:49:50;;;;;;;;;;;;;;;10.96;67.46;99830.38;4151530;28;20474;-64
2023/03/25 08:51:52;;;;;;;;;;;;;;;11.01;66.99;99844.09;4120168;28;20016;-64
2023/03/25 08:53:54;;;;;;;;;;;;;;;11.03;67.11;99831.22;4123087;28;20040;-63
2023/03/25 08:55:57;;;;;;;;;;;;;;;11.07;67.00;99842.47;4124383;28;20028;-63
2023/03/25 08:58:02;;;;;;;;;;;;;;;11.09;66.64;99826.88;4122529;28;20523;-63
2023/03/25 09:00:07;;;;;;;;;;;;;;;11.10;67.02;99828.56;4124363;28;20496;-63
2023/03/25 09:02:10;;;;;;;;;;;;;;;11.12;66.80;99850.81;4122242;28;20524;-64
2023/03/25 09:04:12;;;;;;;;;;;;;;;11.13;66.89;99831.69;4123150;28;20021;-63
2023/03/25 09:06:14;;;;;;;;;;;;;;;11.12;65.90;99832.72;4123450;28;20025;-64
2023/03/25 09:08:16;;;;;;;;;;;;;;;11.13;65.90;99828.97;4122140;28;20021;-63
2023/03/25 09:10:18;;;;;;;;;;;;;;;11.12;66.15;99830.00;4124169;28;20382;-67
2023/03/25 09:12:20;;;;;;;;;;;;;;;11.15;66.63;99826.91;4122472;28;20369;-63
2023/03/25 09:14:23;;;;;;;;;;;;;;;11.15;65.62;99842.28;4122111;28;20589;-64
2023/03/25 09:16:25;;;;;;;;;;;;;;;11.14;64.99;99829.81;4123034;28;20036;-62
2023/03/25 09:18:27;;;;;;;;;;;;;;;11.16;65.29;99835.88;4123116;28;20324;-64
2023/03/25 09:20:29;;;;;;;;;;;;;;;11.15;64.37;99834.19;4122501;28;20013;-63
2023/03/25 09:22:31;;;;;;;;;;;;;;;11.17;64.30;99848.31;4122639;28;20053;-64
2023/03/25 09:24:34;;;;;;;;;;;;;;;11.15;63.84;99837.72;4123096;28;19997;-63
2023/03/25 09:26:36;;;;;;;;;;;;;;;11.15;63.68;99845.00;4122526;28;20021;-63
2023/03/25 09:28:38;;;;;;;;;;;;;;;11.14;62.78;99821.69;4123142;28;19973;-64
2023/03/25 09:30:42;;;;;;;;;;;;;;;11.13;63.03;99830.88;4143245;28;19933;-63
2023/03/25 09:32:44;;;;;;;;;;;;;;;11.12;63.05;99851.63;4122461;28;20017;-61
2023/03/25 09:34:46;;;;;;;;;;;;;;;11.13;62.63;99838.97;4122404;28;20021;-63
2023/03/25 09:36:48;;;;;;;;;;;;;;;11.12;62.22;99826.47;4123280;28;20025;-62
2023/03/25 09:38:50;;;;;;;;;;;;;;;11.11;62.23;99828.38;4137288;28;20020;-63
2023/03/25 09:40:52;;;;;;;;;;;;;;;11.08;61.45;99861.19;4122317;28;20013;-64
2023/03/25 09:43:00;;;;;;;;;;;;;;;11.07;61.76;99842.47;4122699;28;20647;-64
2023/03/25 09:45:05;;;;;;;;;;;;;;;11.07;62.13;99864.09;4122829;28;20407;-64
2023/03/25 09:47:08;;;;;;;;;;;;;;;11.06;61.88;99828.13;4123044;28;20021;-63
2023/03/25 09:49:10;;;;;;;;;;;;;;;10.96;61.59;99833.91;4122241;28;20017;-64
2023/03/25 09:51:13;;;;;;;;;;;;;;;11.03;62.41;99835.81;4122969;28;20028;-63
2023/03/25 09:53:16;;;;;;;;;;;;;;;11.04;62.37;99840.19;4122747;28;20379;-65
2023/03/25 09:55:21;;;;;;;;;;;;;;;11.05;62.29;99839.13;4123039;28;20026;-64
2023/03/25 09:57:25;;;;;;;;;;;;;;;11.03;60.61;99839.31;4122969;28;20005;-63
2023/03/25 09:59:32;;;;;;;;;;;;;;;11.05;60.89;99829.16;4123350;28;20013;-65
2023/03/25 10:01:36;;;;;;;;;;;;;;;11.11;61.57;99846.44;4122263;28;20016;-65
2023/03/25 10:03:42;;;;;;;;;;;;;;;11.14;61.53;99854.97;4127416;28;20033;-64
2023/03/25 10:05:49;;;;;;;;;;;;;;;11.17;60.95;99838.38;4122552;28;20049;-64
2023/03/25 10:07:55;;;;;;;;;;;;;;;11.20;61.03;99838.97;4122641;28;20030;-64
2023/03/25 10:09:58;;;;;;;;;;;;;;;11.21;60.35;99833.38;4123571;28;19929;-62
2023/03/25 10:12:01;;;;;;;;;;;;;;;11.22;61.00;99850.41;4122429;28;20012;-65
2023/03/25 10:14:04;;;;;;;;;;;;;;;11.22;61.09;99839.59;4122704;28;20018;-64
2023/03/25 10:16:07;;;;;;;;;;;;;;;11.24;60.97;99827.56;4128585;28;20028;-64
2023/03/25 10:18:18;;;;;;;;;;;;;;;11.29;61.64;99818.84;4121645;28;20446;-63
2023/03/25 10:20:22;;;;;;;;;;;;;;;11.33;60.74;99850.66;4122226;28;20012;-63
2023/03/25 10:22:25;;;;;;;;;;;;;;;11.36;61.14;99835.91;4120580;28;20020;-63
2023/03/25 10:24:28;;;;;;;;;;;;;;;11.39;60.90;99830.06;4123251;28;20048;-65
2023/03/25 10:26:31;;;;;;;;;;;;;;;11.40;60.46;99825.53;4122587;28;20033;-63
2023/03/25 10:28:33;;;;;;;;;;;;;;;11.43;60.58;99825.94;4121123;28;20359;-63
2023/03/25 10:30:36;;;;;;;;;;;;;;;11.47;60.60;99846.13;4122173;28;19933;-65
2023/03/25 10:32:39;;;;;;;;;;;;;;;11.50;60.35;99813.28;4121474;28;20016;-62
2023/03/25 10:34:42;;;;;;;;;;;;;;;11.55;60.42;99820.75;4122209;28;20020;-62
2023/03/25 10:36:48;;;;;;;;;;;;;;;11.57;59.66;99823.25;4121645;28;20013;-62
2023/03/25 10:38:53;;;;;;;;;;;;;;;11.58;58.96;99822.22;4121965;28;20026;-62
2023/03/25 10:40:55;;;;;;;;;;;;;;;11.67;59.67;99821.81;4121893;28;20020;-63
2023/03/25 10:43:11;;;;;;;;;;;;;;;11.77;59.52;99824.13;4122014;28;20025;-63
2023/03/25 10:45:14;;;;;;;;;;;;;;;11.82;58.39;99828.91;4122370;28;20037;-63
2023/03/25 10:47:17;;;;;;;;;;;;;;;11.82;58.60;99818.09;4121758;28;20025;-62
2023/03/25 10:49:20;;;;;;;;;;;;;;;11.85;58.10;99820.38;4122285;28;20026;-63